sensor_id;sensor_type;location;lat;lon;timestamp;P1;durP1;ratioP1;P2;durP2;ratioP2
22861;SDS011;11598;50.652;6.172;2023-04-24T00:02:10;5.13;;;1.73;;
22861;SDS011;11598;50.652;6.172;2023-04-24T00:12:10;4.22;;;1.70;;
22861;SDS011;11598;50.652;6.172;2023-04-24T00:22:11;9.27;;;2.28;;
22861;SDS011;11598;50.652;6.172;2023-04-24T00:32:13;7.03;;;4.32;;
22861;SDS011;11598;50.652;6.172;2023-04-24T00:42:14;8.20;;;3.90;;
22861;SDS011;11598;50.652;6.172;2023-04-24T00:52:14;6.50;;;3.58;;
22861;SDS011;11598;50.652;6.172;2023-04-24T01:02:17;7.17;;;3.90;;
22861;SDS011;11598;50.652;6.172;2023-04-24T01:12:18;12.40;;;6.35;;
22861;SDS011;11598;50.652;6.172;2023-04-24T01:22:19;9.65;;;5.63;;
22861;SDS011;11598;50.652;6.172;2023-04-24T01:32:20;9.85;;;6.65;;
22861;SDS011;11598;50.652;6.172;2023-04-24T01:42:21;14.75;;;7.30;;
22861;SDS011;11598;50.652;6.172;2023-04-24T01:52:22;14.32;;;7.10;;
22861;SDS011;11598;50.652;6.172;2023-04-24T02:02:23;12.50;;;7.10;;
22861;SDS011;11598;50.652;6.172;2023-04-24T02:12:30;15.98;;;8.25;;
22861;SDS011;11598;50.652;6.172;2023-04-24T02:22:30;15.77;;;8.50;;
22861;SDS011;11598;50.652;6.172;2023-04-24T02:32:30;12.15;;;7.55;;
22861;SDS011;11598;50.652;6.172;2023-04-24T02:42:31;15.55;;;7.35;;
22861;SDS011;11598;50.652;6.172;2023-04-24T02:52:31;14.07;;;7.80;;
22861;SDS011;11598;50.652;6.172;2023-04-24T03:02:31;16.42;;;7.60;;
22861;SDS011;11598;50.652;6.172;2023-04-24T03:12:32;17.17;;;9.02;;
22861;SDS011;11598;50.652;6.172;2023-04-24T03:22:32;24.48;;;10.27;;
22861;SDS011;11598;50.652;6.172;2023-04-24T03:32:33;18.20;;;9.23;;
22861;SDS011;11598;50.652;6.172;2023-04-24T03:42:34;16.55;;;8.00;;
22861;SDS011;11598;50.652;6.172;2023-04-24T03:52:34;14.93;;;8.48;;
22861;SDS011;11598;50.652;6.172;2023-04-24T04:02:35;15.52;;;9.00;;
22861;SDS011;11598;50.652;6.172;2023-04-24T04:12:35;14.63;;;7.72;;
22861;SDS011;11598;50.652;6.172;2023-04-24T04:22:36;14.20;;;9.02;;
22861;SDS011;11598;50.652;6.172;2023-04-24T04:32:36;16.23;;;8.68;;
22861;SDS011;11598;50.652;6.172;2023-04-24T04:42:37;16.10;;;8.07;;
22861;SDS011;11598;50.652;6.172;2023-04-24T04:52:40;12.77;;;7.90;;
22861;SDS011;11598;50.652;6.172;2023-04-24T05:02:40;17.33;;;9.18;;
22861;SDS011;11598;50.652;6.172;2023-04-24T05:12:41;11.63;;;7.00;;
22861;SDS011;11598;50.652;6.172;2023-04-24T05:22:41;12.05;;;5.97;;
22861;SDS011;11598;50.652;6.172;2023-04-24T05:32:41;11.95;;;5.45;;
22861;SDS011;11598;50.652;6.172;2023-04-24T05:42:42;11.52;;;5.13;;
22861;SDS011;11598;50.652;6.172;2023-04-24T05:52:42;9.73;;;5.03;;
22861;SDS011;11598;50.652;6.172;2023-04-24T06:02:42;11.57;;;5.43;;
22861;SDS011;11598;50.652;6.172;2023-04-24T06:12:43;6.72;;;4.25;;
22861;SDS011;11598;50.652;6.172;2023-04-24T06:22:43;10.23;;;4.95;;
22861;SDS011;11598;50.652;6.172;2023-04-24T06:32:43;7.40;;;4.30;;
22861;SDS011;11598;50.652;6.172;2023-04-24T06:42:44;7.65;;;4.00;;
22861;SDS011;11598;50.652;6.172;2023-04-24T06:52:44;6.93;;;3.63;;
22861;SDS011;11598;50.652;6.172;2023-04-24T07:02:45;9.38;;;3.25;;
22861;SDS011;11598;50.652;6.172;2023-04-24T07:12:46;10.48;;;5.50;;
22861;SDS011;11598;50.652;6.172;2023-04-24T07:22:46;9.48;;;5.68;;
22861;SDS011;11598;50.652;6.172;2023-04-24T07:32:49;11.65;;;5.95;;
22861;SDS011;11598;50.652;6.172;2023-04-24T07:42:49;11.18;;;5.28;;
22861;SDS011;11598;50.652;6.172;2023-04-24T07:52:49;10.95;;;4.65;;
22861;SDS011;11598;50.652;6.172;2023-04-24T08:02:50;13.65;;;6.22;;
22861;SDS011;11598;50.652;6.172;2023-04-24T08:12:50;15.32;;;6.20;;
22861;SDS011;11598;50.652;6.172;2023-04-24T08:22:51;13.77;;;7.00;;
22861;SDS011;11598;50.652;6.172;2023-04-24T08:32:51;10.93;;;6.28;;
22861;SDS011;11598;50.652;6.172;2023-04-24T08:42:51;17.85;;;8.02;;
22861;SDS011;11598;50.652;6.172;2023-04-24T08:52:55;25.55;;;10.55;;
22861;SDS011;11598;50.652;6.172;2023-04-24T09:02:56;27.13;;;11.88;;
22861;SDS011;11598;50.652;6.172;2023-04-24T09:12:57;24.73;;;11.57;;
22861;SDS011;11598;50.652;6.172;2023-04-24T09:23:01;25.00;;;11.65;;
22861;SDS011;11598;50.652;6.172;2023-04-24T09:33:12;24.10;;;11.77;;
22861;SDS011;11598;50.652;6.172;2023-04-24T09:43:13;29.25;;;11.40;;
22861;SDS011;11598;50.652;6.172;2023-04-24T09:53:15;18.73;;;9.43;;
22861;SDS011;11598;50.652;6.172;2023-04-24T10:03:15;21.35;;;9.63;;
22861;SDS011;11598;50.652;6.172;2023-04-24T10:13:18;30.57;;;12.03;;
22861;SDS011;11598;50.652;6.172;2023-04-24T10:23:18;26.42;;;10.60;;
22861;SDS011;11598;50.652;6.172;2023-04-24T10:33:19;19.08;;;10.65;;
22861;SDS011;11598;50.652;6.172;2023-04-24T10:43:20;27.88;;;11.82;;
22861;SDS011;11598;50.652;6.172;2023-04-24T10:53:25;33.50;;;13.82;;
22861;SDS011;11598;50.652;6.172;2023-04-24T11:03:29;35.03;;;14.95;;
22861;SDS011;11598;50.652;6.172;2023-04-24T11:23:56;33.70;;;16.25;;
22861;SDS011;11598;50.652;6.172;2023-04-24T11:33:56;23.98;;;13.35;;
22861;SDS011;11598;50.652;6.172;2023-04-24T11:43:57;20.83;;;11.07;;
22861;SDS011;11598;50.652;6.172;2023-04-24T11:53:58;22.42;;;11.52;;
22861;SDS011;11598;50.652;6.172;2023-04-24T12:04:01;30.05;;;10.98;;
22861;SDS011;11598;50.652;6.172;2023-04-24T12:14:11;20.85;;;10.07;;
22861;SDS011;11598;50.652;6.172;2023-04-24T12:24:12;25.23;;;10.82;;
22861;SDS011;11598;50.652;6.172;2023-04-24T12:34:19;22.77;;;10.77;;
22861;SDS011;11598;50.652;6.172;2023-04-24T12:44:20;19.88;;;9.20;;
22861;SDS011;11598;50.652;6.172;2023-04-24T12:54:32;18.45;;;8.30;;
22861;SDS011;11598;50.652;6.172;2023-04-24T13:04:33;14.18;;;7.43;;
22861;SDS011;11598;50.652;6.172;2023-04-24T13:14:33;12.57;;;7.07;;
22861;SDS011;11598;50.652;6.172;2023-04-24T13:24:35;14.73;;;7.15;;
22861;SDS011;11598;50.652;6.172;2023-04-24T13:34:35;15.88;;;7.35;;
22861;SDS011;11598;50.652;6.172;2023-04-24T13:44:36;17.08;;;8.43;;
22861;SDS011;11598;50.652;6.172;2023-04-24T13:54:37;14.40;;;8.35;;
22861;SDS011;11598;50.652;6.172;2023-04-24T14:04:37;19.27;;;8.68;;
22861;SDS011;11598;50.652;6.172;2023-04-24T14:14:37;13.52;;;8.52;;
22861;SDS011;11598;50.652;6.172;2023-04-24T14:24:38;16.33;;;10.00;;
22861;SDS011;11598;50.652;6.172;2023-04-24T14:34:38;16.58;;;7.72;;
22861;SDS011;11598;50.652;6.172;2023-04-24T14:44:38;15.77;;;7.97;;
22861;SDS011;11598;50.652;6.172;2023-04-24T14:54:39;13.02;;;7.38;;
22861;SDS011;11598;50.652;6.172;2023-04-24T15:04:39;11.17;;;6.10;;
22861;SDS011;11598;50.652;6.172;2023-04-24T15:14:40;10.35;;;6.10;;
22861;SDS011;11598;50.652;6.172;2023-04-24T15:24:40;16.90;;;7.00;;
22861;SDS011;11598;50.652;6.172;2023-04-24T15:34:41;11.40;;;6.80;;
22861;SDS011;11598;50.652;6.172;2023-04-24T15:44:41;12.88;;;7.55;;
22861;SDS011;11598;50.652;6.172;2023-04-24T15:54:41;17.48;;;8.52;;
22861;SDS011;11598;50.652;6.172;2023-04-24T16:04:42;14.18;;;9.20;;
22861;SDS011;11598;50.652;6.172;2023-04-24T16:14:42;17.25;;;10.43;;
22861;SDS011;11598;50.652;6.172;2023-04-24T16:24:42;17.55;;;10.63;;
22861;SDS011;11598;50.652;6.172;2023-04-24T16:34:43;18.58;;;12.05;;
22861;SDS011;11598;50.652;6.172;2023-04-24T16:44:44;21.88;;;13.05;;
22861;SDS011;11598;50.652;6.172;2023-04-24T16:54:44;24.67;;;13.35;;
22861;SDS011;11598;50.652;6.172;2023-04-24T17:04:44;23.05;;;13.88;;
22861;SDS011;11598;50.652;6.172;2023-04-24T17:14:46;19.52;;;12.15;;
22861;SDS011;11598;50.652;6.172;2023-04-24T17:24:47;21.02;;;13.63;;
22861;SDS011;11598;50.652;6.172;2023-04-24T17:34:47;29.65;;;16.15;;
22861;SDS011;11598;50.652;6.172;2023-04-24T17:44:48;26.58;;;16.10;;
22861;SDS011;11598;50.652;6.172;2023-04-24T17:54:48;36.38;;;17.88;;
22861;SDS011;11598;50.652;6.172;2023-04-24T18:04:48;28.80;;;16.48;;
22861;SDS011;11598;50.652;6.172;2023-04-24T18:14:49;25.70;;;17.77;;
22861;SDS011;11598;50.652;6.172;2023-04-24T18:24:49;30.73;;;17.60;;
22861;SDS011;11598;50.652;6.172;2023-04-24T18:34:49;26.40;;;16.98;;
22861;SDS011;11598;50.652;6.172;2023-04-24T18:44:50;30.33;;;18.70;;
22861;SDS011;11598;50.652;6.172;2023-04-24T18:54:50;29.70;;;17.55;;
22861;SDS011;11598;50.652;6.172;2023-04-24T19:04:51;26.30;;;16.58;;
22861;SDS011;11598;50.652;6.172;2023-04-24T19:14:51;28.63;;;17.55;;
22861;SDS011;11598;50.652;6.172;2023-04-24T19:24:54;29.67;;;17.73;;
22861;SDS011;11598;50.652;6.172;2023-04-24T19:34:57;24.40;;;15.43;;
22861;SDS011;11598;50.652;6.172;2023-04-24T19:44:58;22.60;;;13.32;;
22861;SDS011;11598;50.652;6.172;2023-04-24T19:54:59;23.00;;;12.88;;
22861;SDS011;11598;50.652;6.172;2023-04-24T20:04:59;20.43;;;13.47;;
22861;SDS011;11598;50.652;6.172;2023-04-24T20:15:01;19.83;;;10.38;;
22861;SDS011;11598;50.652;6.172;2023-04-24T20:25:04;18.83;;;10.03;;
22861;SDS011;11598;50.652;6.172;2023-04-24T20:35:05;21.33;;;11.03;;
22861;SDS011;11598;50.652;6.172;2023-04-24T20:45:06;20.75;;;11.05;;
22861;SDS011;11598;50.652;6.172;2023-04-24T20:55:07;18.65;;;10.55;;
22861;SDS011;11598;50.652;6.172;2023-04-24T21:05:08;18.40;;;10.13;;
22861;SDS011;11598;50.652;6.172;2023-04-24T21:15:09;16.42;;;9.25;;
22861;SDS011;11598;50.652;6.172;2023-04-24T21:25:09;18.13;;;9.40;;
22861;SDS011;11598;50.652;6.172;2023-04-24T21:35:10;16.50;;;9.43;;
22861;SDS011;11598;50.652;6.172;2023-04-24T21:45:10;14.75;;;7.90;;
22861;SDS011;11598;50.652;6.172;2023-04-24T21:55:11;18.10;;;8.60;;
22861;SDS011;11598;50.652;6.172;2023-04-24T22:05:11;16.27;;;7.72;;
22861;SDS011;11598;50.652;6.172;2023-04-24T22:25:16;19.83;;;7.63;;
22861;SDS011;11598;50.652;6.172;2023-04-24T22:35:17;14.85;;;6.75;;
22861;SDS011;11598;50.652;6.172;2023-04-24T22:45:19;16.17;;;6.70;;
22861;SDS011;11598;50.652;6.172;2023-04-24T23:05:22;15.82;;;7.03;;
22861;SDS011;11598;50.652;6.172;2023-04-24T23:15:24;10.98;;;6.05;;
22861;SDS011;11598;50.652;6.172;2023-04-24T23:25:24;14.90;;;6.45;;
22861;SDS011;11598;50.652;6.172;2023-04-24T23:35:25;12.30;;;6.03;;
22861;SDS011;11598;50.652;6.172;2023-04-24T23:45:26;17.90;;;6.32;;
22861;SDS011;11598;50.652;6.172;2023-04-24T23:55:26;15.20;;;6.78;;
